Weather Station Data

Station Data Captured at Five Minute Intervals Since Midnight Local Time


Date Time Temp. RH % Dew Pt. Wind Speed Wind Dir. Peak Wind Wind Chill Pressure Precip. Solar W/m2 ET
5/19/19 6:45p 67.9 85 63.2 3.0 S 8.0 67.9 29.798 0.00 110 0.000
5/19/19 6:40p 67.7 85 63.0 3.0 SSW 5.0 67.7 29.798 0.00 149 0.000
5/19/19 6:35p 67.5 85 62.8 2.0 S 6.0 67.5 29.798 0.00 163 0.000
5/19/19 6:30p 67.4 85 62.7 2.0 SSW 7.0 67.4 29.795 0.00 128 0.000
5/19/19 6:25p 67.2 86 62.9 2.0 S 4.0 67.2 29.796 0.00 118 0.000
5/19/19 6:20p 67.1 86 62.8 2.0 SSW 4.0 67.1 29.794 0.00 128 0.000
5/19/19 6:15p 66.9 86 62.6 1.0 SW 5.0 66.9 29.797 0.00 138 0.000
5/19/19 6:10p 66.7 86 62.4 2.0 S 6.0 66.7 29.795 0.00 171 0.000
5/19/19 6:05p 66.6 85 61.9 2.0 SSW 4.0 66.6 29.797 0.00 135 0.000
5/19/19 6:00p 66.5 86 62.2 3.0 S 8.0 66.5 29.801 0.00 95 0.003
5/19/19 5:55p 66.7 86 62.4 1.0 S 5.0 66.7 29.803 0.00 117 0.000
5/19/19 5:50p 66.5 86 62.2 1.0 SSE 4.0 66.5 29.802 0.00 118 0.000
5/19/19 5:45p 66.3 86 62.0 2.0 SSW 5.0 66.3 29.801 0.00 105 0.000
5/19/19 5:40p 66.4 86 62.1 2.0 S 6.0 66.4 29.800 0.00 99 0.000
5/19/19 5:35p 66.3 86 62.0 1.0 SSW 3.0 66.3 29.802 0.00 117 0.000
5/19/19 5:30p 66.1 86 61.8 2.0 S 6.0 66.1 29.804 0.00 172 0.000
5/19/19 5:25p 65.9 85 61.3 3.0 S 10.0 65.9 29.803 0.00 96 0.000
5/19/19 5:20p 65.9 86 61.6 2.0 SSW 7.0 65.9 29.802 0.00 74 0.000
5/19/19 5:15p 65.9 86 61.6 3.0 S 7.0 65.9 29.801 0.00 86 0.000
5/19/19 5:10p 65.8 86 61.5 2.0 SSE 6.0 65.8 29.801 0.00 88 0.000
5/19/19 5:05p 65.7 86 61.4 2.0 S 5.0 65.7 29.801 0.00 96 0.000
5/19/19 5:00p 65.6 86 61.3 1.0 S 4.0 65.6 29.800 0.01 89 0.002
5/19/19 4:55p 65.4 86 61.1 2.0 SSW 5.0 65.4 29.802 0.00 49 0.000
5/19/19 4:50p 65.4 85 60.8 2.0 SSW 5.0 65.4 29.806 0.00 46 0.000
5/19/19 4:45p 65.3 85 60.7 2.0 SSW 7.0 65.3 29.812 0.00 43 0.000
5/19/19 4:40p 65.3 85 60.7 3.0 SSW 10.0 65.3 29.806 0.00 45 0.000
5/19/19 4:35p 65.2 85 60.6 4.0 S 10.0 65.2 29.809 0.02 41 0.000
5/19/19 4:30p 65.2 85 60.6 4.0 S 10.0 65.2 29.813 0.03 41 0.000
5/19/19 4:25p 65.5 84 60.5 5.0 S 13.0 65.5 29.819 0.03 45 0.000
5/19/19 4:20p 65.8 84 60.8 7.0 S 18.0 65.8 29.824 0.02 48 0.000
5/19/19 4:15p 66.1 84 61.1 4.0 SSE 14.0 66.1 29.822 0.01 72 0.000
5/19/19 4:10p 66.3 84 61.3 6.0 S 13.0 66.3 29.823 0.01 85 0.000
5/19/19 4:05p 66.5 83 61.2 5.0 SSW 10.0 66.5 29.825 0.00 96 0.000
5/19/19 4:00p 66.7 83 61.4 5.0 S 12.0 66.7 29.817 0.00 87 0.005
5/19/19 3:55p 67.2 83 61.9 7.0 S 12.0 67.2 29.824 0.01 80 0.000
5/19/19 3:50p 68.2 81 62.1 7.0 S 17.0 68.2 29.818 0.00 78 0.000
5/19/19 3:45p 69.9 77 62.4 8.0 SSW 14.0 69.4 29.823 0.01 56 0.000
5/19/19 3:40p 72.0 72 62.5 7.0 SSW 18.0 72.0 29.815 0.01 75 0.000
5/19/19 3:35p 73.5 67 61.9 6.0 S 11.0 73.5 29.812 0.00 105 0.000
5/19/19 3:30p 74.1 65 61.6 6.0 S 14.0 74.1 29.806 0.00 159 0.000
5/19/19 3:25p 74.6 64 61.6 8.0 S 17.0 74.1 29.803 0.00 140 0.000
5/19/19 3:20p 75.0 62 61.1 9.0 SSW 19.0 73.7 29.802 0.00 180 0.000
5/19/19 3:15p 75.2 62 61.3 8.0 S 16.0 74.7 29.796 0.00 216 0.000
5/19/19 3:10p 75.5 63 62.0 5.0 SSE 14.0 75.5 29.797 0.00 210 0.000
5/19/19 3:05p 75.9 63 62.4 5.0 S 12.0 75.9 29.797 0.00 206 0.000
5/19/19 3:00p 76.1 62 62.1 8.0 S 15.0 75.6 29.794 0.00 235 0.009
5/19/19 2:55p 76.1 61 61.7 7.0 S 15.0 76.1 29.791 0.00 310 0.000
5/19/19 2:50p 75.9 62 61.9 6.0 S 12.0 75.9 29.796 0.00 310 0.000
5/19/19 2:45p 75.7 63 62.2 7.0 S 20.0 75.7 29.793 0.00 311 0.000
5/19/19 2:40p 75.4 63 61.9 6.0 SSE 19.0 75.4 29.793 0.00 278 0.000
5/19/19 2:35p 75.4 66 63.2 4.0 SSE 10.0 75.4 29.792 0.00 198 0.000
5/19/19 2:30p 75.3 64 62.3 5.0 S 12.0 75.3 29.792 0.00 262 0.000
5/19/19 2:25p 75.2 67 63.5 4.0 S 9.0 75.2 29.792 0.00 280 0.000
5/19/19 2:20p 75.0 67 63.3 5.0 S 10.0 75.0 29.794 0.00 300 0.000
5/19/19 2:15p 74.7 67 63.0 5.0 SSW 15.0 74.7 29.790 0.00 261 0.000
5/19/19 2:10p 74.5 68 63.2 5.0 SSE 14.0 74.5 29.795 0.00 258 0.000
5/19/19 2:05p 74.3 68 63.1 5.0 S 13.0 74.3 29.797 0.00 289 0.000
5/19/19 2:00p 74.1 69 63.3 4.0 SSW 11.0 74.1 29.800 0.00 283 0.008
5/19/19 1:55p 73.9 69 63.1 5.0 SSE 14.0 73.9 29.804 0.00 193 0.000
5/19/19 1:50p 74.0 68 62.8 6.0 S 15.0 74.0 29.805 0.00 122 0.000
5/19/19 1:45p 74.2 67 62.5 6.0 S 14.0 74.2 29.809 0.00 151 0.000
5/19/19 1:40p 74.4 68 63.1 5.0 SSW 13.0 74.4 29.814 0.00 182 0.000
5/19/19 1:35p 74.5 66 62.4 6.0 S 20.0 74.5 29.812 0.00 184 0.000
5/19/19 1:30p 74.8 66 62.7 7.0 S 15.0 74.8 29.809 0.00 180 0.000
5/19/19 1:25p 74.9 65 62.3 7.0 S 13.0 74.9 29.814 0.00 210 0.000
5/19/19 1:20p 75.2 65 62.6 7.0 S 16.0 75.2 29.813 0.00 199 0.000
5/19/19 1:15p 75.7 64 62.7 6.0 S 15.0 75.7 29.814 0.00 209 0.000
5/19/19 1:10p 76.2 64 63.1 6.0 S 19.0 76.2 29.812 0.00 282 0.000
5/19/19 1:05p 76.4 65 63.8 6.0 S 17.0 76.4 29.807 0.00 512 0.000
5/19/19 1:00p 76.1 62 62.1 6.0 S 10.0 76.1 29.809 0.00 472 0.008
5/19/19 12:55p 75.6 62 61.7 6.0 S 19.0 75.6 29.811 0.00 563 0.000
5/19/19 12:50p 75.1 62 61.2 7.0 S 15.0 75.1 29.814 0.00 387 0.000
5/19/19 12:45p 74.8 62 60.9 5.0 S 12.0 74.8 29.820 0.00 366 0.000
5/19/19 12:40p 74.6 62 60.7 8.0 S 16.0 74.1 29.823 0.00 218 0.000
5/19/19 12:35p 74.4 62 60.5 7.0 S 14.0 74.4 29.824 0.00 174 0.000
5/19/19 12:30p 74.4 62 60.5 7.0 S 14.0 74.4 29.823 0.00 138 0.000
5/19/19 12:25p 74.4 64 61.4 5.0 S 12.0 74.4 29.825 0.00 110 0.000
5/19/19 12:20p 74.5 65 62.0 6.0 S 18.0 74.5 29.826 0.00 98 0.000
5/19/19 12:15p 74.6 66 62.5 6.0 S 15.0 74.6 29.832 0.00 155 0.000
5/19/19 12:10p 74.7 67 63.0 5.0 S 13.0 74.7 29.836 0.00 111 0.000
5/19/19 12:05p 74.9 67 63.2 6.0 SSW 13.0 74.9 29.836 0.00 135 0.000
5/19/19 12:00p 75.0 68 63.7 6.0 SSW 11.0 75.0 29.833 0.00 208 0.008
5/19/19 11:55a 75.3 67 63.6 6.0 SSW 15.0 75.3 29.834 0.00 168 0.000
5/19/19 11:50a 75.6 65 63.0 5.0 S 13.0 75.6 29.833 0.00 239 0.000
5/19/19 11:45a 75.5 61 61.1 8.0 S 16.0 75.0 29.828 0.00 254 0.000
5/19/19 11:40a 75.1 67 63.4 7.0 S 19.0 75.1 29.821 0.00 264 0.000
5/19/19 11:35a 74.9 69 64.0 7.0 S 15.0 74.9 29.838 0.00 230 0.000
5/19/19 11:30a 74.9 70 64.5 7.0 S 12.0 74.9 29.839 0.00 180 0.000
5/19/19 11:25a 75.0 70 64.5 5.0 SSW 18.0 75.0 29.836 0.00 136 0.000
5/19/19 11:20a 75.3 69 64.4 8.0 S 15.0 74.8 29.833 0.00 144 0.000
5/19/19 11:15a 75.6 69 64.7 7.0 S 12.0 75.6 29.834 0.00 194 0.000
5/19/19 11:10a 75.5 71 65.4 6.0 SSW 15.0 75.5 29.832 0.00 373 0.000
5/19/19 11:05a 75.2 69 64.3 6.0 S 11.0 75.2 29.834 0.00 276 0.000
5/19/19 11:00a 75.2 70 64.7 7.0 S 15.0 75.2 29.835 0.00 274 0.008
5/19/19 10:55a 75.4 71 65.3 7.0 S 22.0 75.4 29.834 0.00 307 0.000
5/19/19 10:50a 75.6 70 65.1 7.0 S 21.0 75.6 29.833 0.00 284 0.000
5/19/19 10:45a 75.8 71 65.7 8.0 S 20.0 75.3 29.834 0.00 357 0.000
5/19/19 10:40a 75.6 71 65.5 7.0 S 16.0 75.6 29.832 0.00 317 0.000
5/19/19 10:35a 75.3 73 66.0 6.0 S 13.0 75.3 29.835 0.00 160 0.000
5/19/19 10:30a 74.9 74 66.1 4.0 SSW 10.0 74.9 29.832 0.00 138 0.000
5/19/19 10:25a 74.5 73 65.3 6.0 SSE 12.0 74.5 29.834 0.00 122 0.000
5/19/19 10:20a 74.4 73 65.2 5.0 SSW 14.0 74.4 29.832 0.00 201 0.000
5/19/19 10:15a 74.3 73 65.1 7.0 S 14.0 74.3 29.829 0.00 225 0.000
5/19/19 10:10a 74.4 74 65.6 7.0 S 13.0 74.4 29.827 0.00 213 0.000
5/19/19 10:05a 74.6 73 65.4 6.0 SSW 15.0 74.6 29.831 0.00 209 0.000
5/19/19 10:00a 74.5 75 66.1 5.0 SSW 11.0 74.5 29.829 0.00 264 0.006
5/19/19 9:55a 74.2 75 65.8 5.0 S 11.0 74.2 29.826 0.00 232 0.000
5/19/19 9:50a 74.0 75 65.6 3.0 SSW 8.0 74.0 29.826 0.00 187 0.000
5/19/19 9:45a 73.9 74 65.1 8.0 S 18.0 73.4 29.824 0.00 286 0.000
5/19/19 9:40a 73.7 75 65.3 6.0 S 20.0 73.7 29.827 0.00 248 0.000
5/19/19 9:35a 73.5 76 65.5 5.0 S 9.0 73.5 29.827 0.00 179 0.000
5/19/19 9:30a 73.5 75 65.1 6.0 S 11.0 73.5 29.823 0.00 136 0.000
5/19/19 9:25a 73.5 76 65.5 6.0 SSW 14.0 73.5 29.822 0.00 268 0.000
5/19/19 9:20a 73.3 76 65.3 4.0 S 11.0 73.3 29.819 0.00 134 0.000
5/19/19 9:15a 73.3 76 65.3 5.0 S 14.0 73.3 29.818 0.00 137 0.000
5/19/19 9:10a 73.3 76 65.3 3.0 S 7.0 73.3 29.817 0.00 187 0.000
5/19/19 9:05a 73.0 77 65.4 5.0 S 12.0 73.0 29.817 0.00 262 0.000
5/19/19 9:00a 72.6 77 65.0 5.0 S 12.0 72.6 29.818 0.00 270 0.004
5/19/19 8:55a 72.2 77 64.6 5.0 S 11.0 72.2 29.818 0.00 236 0.000
5/19/19 8:50a 72.0 78 64.8 4.0 S 10.0 72.0 29.816 0.00 155 0.000
5/19/19 8:45a 71.7 79 64.8 3.0 S 7.0 71.7 29.816 0.00 196 0.000
5/19/19 8:40a 71.5 78 64.3 4.0 S 9.0 71.5 29.816 0.00 141 0.000
5/19/19 8:35a 71.4 78 64.2 5.0 S 15.0 71.4 29.815 0.00 125 0.000
5/19/19 8:30a 71.3 78 64.1 5.0 S 18.0 71.3 29.814 0.00 99 0.000
5/19/19 8:25a 71.3 78 64.1 7.0 S 13.0 71.3 29.812 0.00 87 0.000
5/19/19 8:20a 71.3 78 64.1 6.0 SSW 12.0 71.3 29.810 0.00 84 0.000
5/19/19 8:15a 71.4 78 64.2 5.0 SSE 9.0 71.4 29.807 0.00 76 0.000
5/19/19 8:10a 71.4 78 64.2 5.0 S 12.0 71.4 29.808 0.00 100 0.000
5/19/19 8:05a 71.1 79 64.3 6.0 S 14.0 71.1 29.807 0.00 110 0.000
5/19/19 8:00a 70.8 79 64.0 4.0 SE 11.0 70.8 29.805 0.00 87 0.002
5/19/19 7:55a 70.6 79 63.8 4.0 SSE 17.0 70.6 29.804 0.00 67 0.000
5/19/19 7:50a 70.5 79 63.7 6.0 SSW 18.0 70.5 29.806 0.00 60 0.000
5/19/19 7:45a 70.4 79 63.6 5.0 S 12.0 70.4 29.808 0.00 53 0.000
5/19/19 7:40a 70.5 79 63.7 5.0 S 17.0 70.5 29.807 0.00 44 0.000
5/19/19 7:35a 70.5 79 63.7 5.0 SSW 12.0 70.5 29.808 0.00 40 0.000
5/19/19 7:30a 70.3 79 63.5 6.0 S 12.0 70.3 29.812 0.00 35 0.000
5/19/19 7:25a 70.3 79 63.5 5.0 S 15.0 70.3 29.813 0.00 34 0.000
5/19/19 7:20a 70.2 79 63.4 6.0 SSE 12.0 70.2 29.813 0.00 37 0.000
5/19/19 7:15a 70.1 80 63.6 3.0 S 11.0 70.1 29.811 0.00 39 0.000
5/19/19 7:10a 70.1 79 63.3 3.0 SE 10.0 70.1 29.814 0.00 45 0.000
5/19/19 7:05a 70.2 79 63.4 6.0 S 13.0 70.2 29.816 0.00 48 0.000
5/19/19 7:00a 70.2 79 63.4 4.0 S 12.0 70.2 29.822 0.00 38 0.001
5/19/19 6:55a 70.1 79 63.3 5.0 S 11.0 70.1 29.823 0.00 27 0.000
5/19/19 6:50a 69.9 80 63.4 5.0 SSE 11.0 69.9 29.824 0.00 20 0.000
5/19/19 6:45a 69.8 80 63.3 4.0 S 11.0 69.8 29.821 0.00 15 0.000
5/19/19 6:40a 69.7 80 63.3 4.0 SSE 12.0 69.7 29.820 0.00 10 0.000
5/19/19 6:35a 69.7 80 63.3 4.0 SSE 10.0 69.7 29.817 0.00 6 0.000
5/19/19 6:30a 69.6 81 63.5 5.0 SSE 10.0 69.6 29.819 0.00 0 0.000
5/19/19 6:25a 69.5 81 63.4 5.0 S 10.0 69.5 29.817 0.00 0 0.000
5/19/19 6:20a 69.4 81 63.3 4.0 S 15.0 69.4 29.819 0.00 0 0.000
5/19/19 6:15a 69.4 81 63.3 3.0 S 9.0 69.4 29.819 0.00 0 0.000
5/19/19 6:10a 69.3 81 63.2 4.0 S 9.0 69.3 29.823 0.00 0 0.000
5/19/19 6:05a 69.3 81 63.2 3.0 S 6.0 69.3 29.827 0.00 0 0.000
5/19/19 6:00a 69.3 81 63.2 5.0 S 10.0 69.3 29.829 0.00 0 0.001
5/19/19 5:55a 69.1 81 63.0 4.0 SSE 11.0 69.1 29.829 0.00 0 0.000
5/19/19 5:50a 69.1 81 63.0 3.0 S 8.0 69.1 29.830 0.00 0 0.000
5/19/19 5:45a 69.1 81 63.0 3.0 S 11.0 69.1 29.831 0.00 0 0.000
5/19/19 5:40a 69.0 81 62.9 5.0 S 10.0 69.0 29.833 0.00 0 0.000
5/19/19 5:35a 69.1 81 63.0 3.0 S 7.0 69.1 29.834 0.00 0 0.000
5/19/19 5:30a 69.2 81 63.1 4.0 S 9.0 69.2 29.836 0.00 0 0.000
5/19/19 5:25a 69.2 81 63.1 4.0 S 10.0 69.2 29.834 0.00 0 0.000
5/19/19 5:20a 69.1 81 63.0 4.0 S 12.0 69.1 29.836 0.00 0 0.000
5/19/19 5:15a 69.0 81 62.9 5.0 S 11.0 69.0 29.837 0.00 0 0.000
5/19/19 5:10a 68.9 81 62.8 3.0 SSW 13.0 68.9 29.840 0.00 0 0.000
5/19/19 5:05a 68.9 81 62.8 4.0 SSW 7.0 68.9 29.841 0.00 0 0.000
5/19/19 5:00a 68.9 81 62.8 3.0 S 7.0 68.9 29.841 0.00 0 0.001
5/19/19 4:55a 69.0 81 62.9 4.0 S 8.0 69.0 29.839 0.00 0 0.000
5/19/19 4:50a 69.0 81 62.9 4.0 S 6.0 69.0 29.838 0.00 0 0.000
5/19/19 4:45a 69.0 81 62.9 3.0 SSW 8.0 69.0 29.836 0.00 0 0.000
5/19/19 4:40a 69.0 81 62.9 3.0 S 8.0 69.0 29.834 0.00 0 0.000
5/19/19 4:35a 69.1 81 63.0 3.0 S 6.0 69.1 29.834 0.00 0 0.000
5/19/19 4:30a 69.2 81 63.1 2.0 S 5.0 69.2 29.835 0.00 0 0.000
5/19/19 4:25a 69.3 81 63.2 3.0 SSW 7.0 69.3 29.836 0.00 0 0.000
5/19/19 4:20a 69.4 80 63.0 2.0 SSW 5.0 69.4 29.837 0.00 0 0.000
5/19/19 4:15a 69.6 80 63.2 3.0 S 6.0 69.6 29.835 0.00 0 0.000
5/19/19 4:10a 69.7 80 63.3 3.0 S 7.0 69.7 29.835 0.00 0 0.000
5/19/19 4:05a 69.9 80 63.4 3.0 SSW 7.0 69.9 29.835 0.00 0 0.000
5/19/19 4:00a 70.0 80 63.5 3.0 S 7.0 70.0 29.832 0.00 0 0.001
5/19/19 3:55a 70.1 79 63.3 2.0 SSW 7.0 70.1 29.833 0.00 0 0.000
5/19/19 3:50a 70.3 79 63.5 3.0 S 6.0 70.3 29.830 0.00 0 0.000
5/19/19 3:45a 70.4 79 63.6 3.0 S 6.0 70.4 29.828 0.00 0 0.000
5/19/19 3:40a 70.4 79 63.6 3.0 S 8.0 70.4 29.825 0.00 0 0.000
5/19/19 3:35a 70.6 79 63.8 3.0 S 6.0 70.6 29.825 0.00 0 0.000
5/19/19 3:30a 70.8 78 63.6 4.0 SSW 8.0 70.8 29.828 0.00 0 0.000
5/19/19 3:25a 70.8 78 63.6 3.0 SSE 10.0 70.8 29.828 0.00 0 0.000
5/19/19 3:20a 71.0 78 63.8 4.0 S 8.0 71.0 29.827 0.00 0 0.000
5/19/19 3:15a 71.0 78 63.8 5.0 S 10.0 71.0 29.827 0.00 0 0.000
5/19/19 3:10a 70.9 78 63.7 4.0 S 9.0 70.9 29.826 0.00 0 0.000
5/19/19 3:05a 70.9 78 63.7 4.0 SSW 11.0 70.9 29.826 0.00 0 0.000
5/19/19 3:00a 70.8 79 64.0 3.0 S 9.0 70.8 29.826 0.00 0 0.001
5/19/19 2:55a 70.8 79 64.0 3.0 S 11.0 70.8 29.824 0.00 0 0.000
5/19/19 2:50a 70.9 79 64.1 3.0 S 5.0 70.9 29.825 0.00 0 0.000
5/19/19 2:45a 70.9 79 64.1 3.0 SSE 7.0 70.9 29.824 0.00 0 0.000
5/19/19 2:40a 70.9 79 64.1 3.0 S 10.0 70.9 29.825 0.00 0 0.000
5/19/19 2:35a 71.1 79 64.3 2.0 S 7.0 71.1 29.830 0.00 0 0.000
5/19/19 2:30a 71.2 78 64.0 3.0 S 6.0 71.2 29.830 0.00 0 0.000
5/19/19 2:25a 71.3 78 64.1 3.0 SSW 7.0 71.3 29.831 0.00 0 0.000
5/19/19 2:20a 71.3 78 64.1 3.0 S 6.0 71.3 29.836 0.00 0 0.000
5/19/19 2:15a 71.3 78 64.1 2.0 SSW 6.0 71.3 29.837 0.00 0 0.000
5/19/19 2:10a 71.5 78 64.3 2.0 SSE 4.0 71.5 29.836 0.00 0 0.000
5/19/19 2:05a 71.6 78 64.4 2.0 SSW 5.0 71.6 29.839 0.00 0 0.000
5/19/19 2:00a 71.7 77 64.1 2.0 SSW 7.0 71.7 29.841 0.00 0 0.001
5/19/19 1:55a 71.8 77 64.2 2.0 S 7.0 71.8 29.843 0.00 0 0.000
5/19/19 1:50a 71.9 77 64.3 2.0 SSW 5.0 71.9 29.845 0.00 0 0.000
5/19/19 1:45a 72.0 77 64.4 2.0 S 4.0 72.0 29.846 0.00 0 0.000
5/19/19 1:40a 72.1 77 64.5 3.0 SSW 6.0 72.1 29.848 0.00 0 0.000
5/19/19 1:35a 72.3 76 64.3 2.0 SSW 7.0 72.3 29.852 0.00 0 0.000
5/19/19 1:30a 72.4 76 64.4 2.0 SSW 5.0 72.4 29.853 0.00 0 0.000
5/19/19 1:25a 72.5 76 64.5 2.0 SSW 5.0 72.5 29.856 0.00 0 0.000
5/19/19 1:20a 72.5 76 64.5 2.0 SSW 5.0 72.5 29.857 0.00 0 0.000
5/19/19 1:15a 72.6 76 64.6 3.0 SSW 6.0 72.6 29.859 0.00 0 0.000
5/19/19 1:10a 72.7 76 64.7 3.0 S 6.0 72.7 29.860 0.00 0 0.000
5/19/19 1:05a 72.7 75 64.3 2.0 S 6.0 72.7 29.859 0.00 0 0.000
5/19/19 1:00a 72.9 75 64.5 2.0 S 7.0 72.9 29.859 0.00 0 0.001
5/19/19 12:55a 72.9 75 64.5 3.0 SSW 7.0 72.9 29.860 0.00 0 0.000
5/19/19 12:50a 72.8 75 64.4 2.0 SSW 5.0 72.8 29.861 0.00 0 0.000
5/19/19 12:45a 72.9 75 64.5 3.0 S 6.0 72.9 29.860 0.00 0 0.000
5/19/19 12:40a 73.1 75 64.7 3.0 SSW 6.0 73.1 29.863 0.00 0 0.000
5/19/19 12:35a 73.2 75 64.8 4.0 S 12.0 73.2 29.858 0.00 0 0.000
5/19/19 12:30a 73.2 75 64.8 2.0 SSW 7.0 73.2 29.857 0.00 0 0.000
5/19/19 12:25a 73.4 75 65.0 3.0 SSW 8.0 73.4 29.859 0.00 0 0.000
5/19/19 12:20a 73.5 75 65.1 2.0 S 5.0 73.5 29.859 0.00 0 0.000
5/19/19 12:15a 73.6 75 65.2 2.0 SSE 4.0 73.6 29.856 0.00 0 0.000
5/19/19 12:10a 73.7 75 65.3 2.0 SSE 6.0 73.7 29.856 0.00 0 0.000
5/19/19 12:05a 73.8 74 65.0 2.0 SSE 4.0 73.8 29.855 0.00 0 0.000
5/19/19 12:00a 73.9 74 65.1 2.0 S 5.0 73.9 29.855 0.00 0 0.001

12,798 Page Views